Pillsbury, ND

9:14 AM CDT on May 25, 2015 (GMT -0500)
Jamestown Municipal | | Change Station
CLOSE
Current Station
Airport
Location: Jamestown,
Elevation: 1499 ft
Nearby Weather Stations

Elev 1499 ft 46.93 °N, 98.67 °W | Updated 18 minutes ago

Mostly Cloudy
Mostly Cloudy
59 °F
Feels Like 59 °F
N
4
Wind Variable Wind from North

Today
High -- | Low -- °F
--% Chance of Precip.
Yesterday
High -- | Low -- °F
Precip. -- in
5:44 AM 9:12 PM
Waxing Crescent, 49% visible
Pressure 29.81 in
Visibility 10.0 miles
Clouds Overcast 8500 ft
Dew Point 56 °F
Humidity 90%
Rainfall 0.19 in
Snow Depth Not available.
UV 1 out of 12
Pollen 6.40 out of 12
Air Quality Not available.
Flu Activity Sporadic
METAR KJMS 251356Z AUTO 36003KT 10SM OVC085 15/13 A2981 RMK AO2 RAE36 SLP095 P0000 T01500133

More Conditions Fewer Conditions

Pressure 29.81 in
Visibility 10.0 miles
Clouds Overcast 8500 ft
Dew Point 56 °F
Humidity 90%
Rainfall 0.19 in
Snow Depth Not available.
UV 1 out of 12
Pollen 6.40 out of 12
Air Quality Not available.
Flu Activity Sporadic
METAR KJMS 251356Z AUTO 36003KT 10SM OVC085 15/13 A2981 RMK AO2 RAE36 SLP095 P0000 T01500133

More Conditions Fewer Conditions

10-Day Weather Forecast

Almanac

Astronomy

May. 25, 2015 Rise Set
Actual Time
Civil Twilight
Nautical Twilight
Astronomical Twilight
Moon
Length of Visible Light
Length of Day
Tomorrow will be .
, % of the Moon is Illuminated

Today's Extremes

State Highs State Lows

Community

WunderPhotos

Upload Photos

1,824,023 photos uploaded!

WunderBlogs® & News

Nearby

Air Quality

  Air Quality AQ Index Pollutant
Not available.

Snow Depth

Station Depth Elevation

Earthquake Activity

City Distance Mag. Time & Date
Minimum magnitude displayed is 2.5.

Coastal Water Temperatures

Place Temperature

Stations

Nearby Weather Stations

Station Location Temp. Windchill Dew Point Humidity Wind Precip. Elev Updated Type